createdAt,value
2018-08-13T00:00:52.771Z,14.78
2018-08-13T00:01:52.772Z,14.62
2018-08-13T00:02:52.774Z,14.69
2018-08-13T00:03:52.774Z,14.62
2018-08-13T00:04:52.777Z,14.65
2018-08-13T00:05:52.777Z,14.62
2018-08-13T00:06:52.776Z,14.80
2018-08-13T00:07:52.776Z,14.71
2018-08-13T00:08:52.779Z,14.65
2018-08-13T00:09:52.780Z,14.68
2018-08-13T00:10:52.785Z,14.60
2018-08-13T00:11:52.780Z,14.69
2018-08-13T00:12:52.782Z,14.75
2018-08-13T00:13:52.786Z,14.75
2018-08-13T00:14:52.783Z,14.68
2018-08-13T00:15:52.788Z,14.72
2018-08-13T00:16:52.787Z,14.68
2018-08-13T00:17:52.788Z,14.65
2018-08-13T00:18:52.787Z,14.67
2018-08-13T00:19:52.789Z,14.64
2018-08-13T00:20:52.790Z,14.60
2018-08-13T00:21:52.790Z,14.62
2018-08-13T00:22:52.793Z,14.64
2018-08-13T00:23:52.793Z,14.68
2018-08-13T00:24:52.795Z,14.69
2018-08-13T00:25:52.794Z,14.68
2018-08-13T00:26:52.792Z,14.78
2018-08-13T00:27:52.796Z,14.84
2018-08-13T00:28:52.795Z,14.75
2018-08-13T00:29:52.797Z,14.78
2018-08-13T00:30:52.795Z,14.78
2018-08-13T00:31:52.799Z,14.71
2018-08-13T00:32:52.801Z,14.68
2018-08-13T00:33:52.802Z,14.62
2018-08-13T00:34:52.818Z,14.61
2018-08-13T00:35:52.799Z,14.54
2018-08-13T00:36:52.801Z,14.56
2018-08-13T00:37:52.804Z,14.47
2018-08-13T00:38:52.801Z,14.50
2018-08-13T00:39:52.807Z,14.35
2018-08-13T00:40:52.850Z,14.32
2018-08-13T00:41:52.806Z,14.35
2018-08-13T00:42:52.806Z,14.35
2018-08-13T00:43:52.807Z,14.32
2018-08-13T00:44:52.808Z,14.37
2018-08-13T00:45:52.817Z,14.39
2018-08-13T00:46:52.811Z,14.27
2018-08-13T00:47:52.816Z,14.29
2018-08-13T00:48:52.810Z,14.32
2018-08-13T00:49:52.814Z,14.44
2018-08-13T00:50:52.814Z,14.37
2018-08-13T00:51:52.812Z,14.47
2018-08-13T00:52:52.815Z,14.43
2018-08-13T00:53:52.817Z,14.49
2018-08-13T00:54:52.835Z,14.42
2018-08-13T00:55:52.826Z,14.35
2018-08-13T00:56:52.822Z,14.34
2018-08-13T00:57:52.823Z,14.32
2018-08-13T00:58:52.818Z,14.38
2018-08-13T00:59:52.819Z,14.34
2018-08-13T01:00:52.820Z,14.28
2018-08-13T01:01:52.822Z,14.24
2018-08-13T01:02:52.822Z,14.14
2018-08-13T01:03:52.830Z,14.31
2018-08-13T01:04:52.826Z,14.28
2018-08-13T01:05:52.823Z,14.27
2018-08-13T01:06:52.822Z,14.31
2018-08-13T01:07:52.824Z,14.17
2018-08-13T01:08:52.829Z,14.17
2018-08-13T01:09:52.826Z,14.17
2018-08-13T01:10:52.826Z,14.28
2018-08-13T01:11:52.828Z,14.19
2018-08-13T01:12:52.837Z,14.31
2018-08-13T01:13:52.830Z,14.25
2018-08-13T01:14:52.829Z,14.25
2018-08-13T01:15:52.830Z,14.35
2018-08-13T01:16:52.836Z,14.37
2018-08-13T01:17:52.831Z,14.43
2018-08-13T01:18:52.829Z,14.50
2018-08-13T01:19:52.833Z,14.35
2018-08-13T01:20:52.833Z,14.43
2018-08-13T01:21:52.834Z,14.34
2018-08-13T01:22:52.834Z,14.38
2018-08-13T01:23:52.837Z,14.37
2018-08-13T01:24:52.835Z,14.32
2018-08-13T01:25:52.837Z,14.32
2018-08-13T01:26:52.836Z,14.35
2018-08-13T01:27:52.843Z,14.19
2018-08-13T01:28:52.837Z,14.27
2018-08-13T01:29:52.861Z,14.21
2018-08-13T01:30:52.839Z,14.31
2018-08-13T01:31:52.844Z,14.25
2018-08-13T01:32:52.841Z,14.21
2018-08-13T01:33:52.841Z,14.29
2018-08-13T01:34:52.844Z,14.29
2018-08-13T01:35:52.842Z,14.28
2018-08-13T01:36:52.845Z,14.25
2018-08-13T01:37:52.845Z,14.24
2018-08-13T01:38:52.843Z,14.20
2018-08-13T01:39:52.844Z,14.19
2018-08-13T01:40:52.845Z,14.12
2018-08-13T01:41:52.845Z,14.16
2018-08-13T01:42:52.846Z,14.04
2018-08-13T01:43:52.846Z,14.07
2018-08-13T01:44:52.846Z,14.09
2018-08-13T01:45:52.847Z,14.10
2018-08-13T01:46:52.846Z,14.06
2018-08-13T01:47:52.852Z,14.10
2018-08-13T01:48:52.847Z,14.10
2018-08-13T01:49:52.850Z,14.09
2018-08-13T01:50:52.868Z,14.13
2018-08-13T01:51:52.850Z,14.10
2018-08-13T01:52:52.851Z,14.10
2018-08-13T01:53:52.852Z,14.06
2018-08-13T01:54:52.850Z,14.10
2018-08-13T01:55:52.850Z,13.98
2018-08-13T01:56:52.852Z,13.98
2018-08-13T01:57:52.853Z,14.09
2018-08-13T01:58:52.860Z,13.99
2018-08-13T01:59:52.867Z,13.98
2018-08-13T02:00:52.854Z,13.98
2018-08-13T02:01:52.983Z,13.99
2018-08-13T02:02:52.856Z,14.02
2018-08-13T02:03:52.854Z,14.01
2018-08-13T02:04:52.855Z,13.95
2018-08-13T02:05:52.859Z,13.96
2018-08-13T02:06:52.856Z,14.09
2018-08-13T02:07:52.857Z,14.10
2018-08-13T02:08:52.859Z,14.06
2018-08-13T02:09:52.858Z,14.01
2018-08-13T02:10:52.858Z,13.99
2018-08-13T02:11:52.860Z,13.99
2018-08-13T02:12:52.858Z,14.01
2018-08-13T02:13:52.862Z,13.96
2018-08-13T02:14:52.859Z,13.92
2018-08-13T02:15:52.859Z,13.99
2018-08-13T02:16:52.860Z,13.91
2018-08-13T02:17:52.861Z,13.84
2018-08-13T02:18:52.861Z,13.91
2018-08-13T02:19:52.861Z,13.88
2018-08-13T02:20:52.862Z,13.84
2018-08-13T02:21:52.862Z,13.83
2018-08-13T02:22:52.864Z,13.89
2018-08-13T02:23:52.861Z,13.89
2018-08-13T02:24:52.862Z,13.87
2018-08-13T02:25:52.863Z,13.84
2018-08-13T02:26:52.864Z,13.91
2018-08-13T02:27:52.862Z,14.01
2018-08-13T02:28:52.873Z,14.02
2018-08-13T02:29:52.865Z,14.06
2018-08-13T02:30:52.865Z,14.01
2018-08-13T02:31:52.866Z,13.96
2018-08-13T02:32:52.865Z,13.95
2018-08-13T02:33:52.866Z,14.02
2018-08-13T02:34:52.866Z,13.96
2018-08-13T02:35:52.866Z,13.94
2018-08-13T02:36:52.866Z,13.84
2018-08-13T02:37:52.868Z,13.89
2018-08-13T02:38:52.869Z,13.83
2018-08-13T02:39:52.867Z,13.87
2018-08-13T02:40:52.871Z,13.73
2018-08-13T02:41:52.870Z,13.84
2018-08-13T02:42:52.867Z,13.88
2018-08-13T02:43:52.866Z,13.87
2018-08-13T02:44:52.867Z,13.88
2018-08-13T02:45:52.872Z,13.88
2018-08-13T02:46:52.870Z,13.91
2018-08-13T02:47:52.869Z,13.95
2018-08-13T02:48:52.869Z,13.96
2018-08-13T02:49:52.876Z,13.99
2018-08-13T02:50:52.871Z,14.01
2018-08-13T02:51:52.873Z,14.06
2018-08-13T02:52:52.871Z,13.99
2018-08-13T02:53:52.876Z,13.98
2018-08-13T02:54:52.870Z,14.01
2018-08-13T02:55:52.874Z,14.01
2018-08-13T02:56:52.871Z,13.98
2018-08-13T02:57:52.876Z,13.96
2018-08-13T02:58:52.871Z,14.09
2018-08-13T02:59:52.875Z,14.09
2018-08-13T03:00:52.873Z,13.99
2018-08-13T03:01:52.883Z,14.01
2018-08-13T03:02:52.875Z,14.07
2018-08-13T03:03:52.876Z,14.06
2018-08-13T03:04:52.880Z,13.98
2018-08-13T03:05:52.876Z,14.01
2018-08-13T03:06:52.876Z,14.04
2018-08-13T03:07:52.880Z,14.12
2018-08-13T03:08:52.876Z,13.98
2018-08-13T03:09:52.877Z,14.01
2018-08-13T03:10:52.876Z,14.07
2018-08-13T03:11:52.877Z,14.02
2018-08-13T03:12:52.875Z,14.09
2018-08-13T03:13:52.881Z,13.95
2018-08-13T03:14:52.878Z,13.88
2018-08-13T03:15:52.890Z,13.95
2018-08-13T03:16:52.887Z,14.02
2018-08-13T03:17:52.877Z,13.91
2018-08-13T03:18:52.885Z,14.04
2018-08-13T03:19:52.878Z,14.02
2018-08-13T03:20:52.880Z,14.04
2018-08-13T03:21:52.884Z,14.12
2018-08-13T03:22:52.879Z,14.01
2018-08-13T03:23:52.880Z,14.06
2018-08-13T03:24:52.884Z,13.96
2018-08-13T03:25:52.888Z,13.94
2018-08-13T03:26:52.884Z,13.98
2018-08-13T03:27:52.883Z,14.01
2018-08-13T03:28:52.882Z,14.01
2018-08-13T03:29:52.890Z,13.98
2018-08-13T03:30:52.884Z,14.01
2018-08-13T03:31:52.886Z,13.99
2018-08-13T03:32:52.885Z,14.07
2018-08-13T03:33:52.883Z,13.98
2018-08-13T03:34:52.886Z,13.96
2018-08-13T03:35:52.885Z,13.95
2018-08-13T03:36:52.887Z,13.99
2018-08-13T03:37:52.888Z,14.02
2018-08-13T03:38:52.887Z,13.88
2018-08-13T03:39:52.886Z,14.04
2018-08-13T03:40:52.888Z,14.06
2018-08-13T03:41:52.888Z,14.01
2018-08-13T03:42:52.889Z,13.99
2018-08-13T03:43:52.891Z,14.04
2018-08-13T03:44:52.890Z,13.96
2018-08-13T03:45:52.891Z,14.01
2018-08-13T03:46:52.889Z,14.06
2018-08-13T03:47:52.910Z,13.99
2018-08-13T03:48:52.890Z,13.96
2018-08-13T03:49:52.890Z,13.95
2018-08-13T03:50:52.892Z,14.07
2018-08-13T03:51:52.904Z,14.06
2018-08-13T03:52:52.893Z,14.01
2018-08-13T03:53:52.922Z,14.12
2018-08-13T03:54:52.900Z,14.12
2018-08-13T03:55:52.893Z,14.12
2018-08-13T03:56:52.898Z,14.10
2018-08-13T03:57:52.896Z,14.17
2018-08-13T03:58:52.895Z,14.09
2018-08-13T03:59:52.902Z,14.13
2018-08-13T04:00:52.896Z,14.24
2018-08-13T04:01:52.896Z,14.13
2018-08-13T04:02:52.897Z,14.13
2018-08-13T04:03:52.896Z,14.10
2018-08-13T04:04:52.898Z,14.13
2018-08-13T04:05:52.899Z,14.09
2018-08-13T04:06:52.897Z,14.10
2018-08-13T04:07:52.897Z,14.10
2018-08-13T04:08:52.904Z,14.13
2018-08-13T04:09:52.899Z,14.10
2018-08-13T04:10:56.483Z,14.14
2018-08-13T04:11:52.900Z,14.14
2018-08-13T04:12:53.004Z,14.19
2018-08-13T04:13:52.902Z,14.19
2018-08-13T04:14:52.900Z,14.24
2018-08-13T04:15:52.901Z,14.24
2018-08-13T04:16:52.916Z,14.37
2018-08-13T04:17:52.901Z,14.25
2018-08-13T04:18:52.905Z,14.28
2018-08-13T04:19:52.903Z,14.31
2018-08-13T04:20:52.908Z,14.39
2018-08-13T04:21:52.908Z,14.43
2018-08-13T04:22:52.939Z,14.31
2018-08-13T04:23:52.925Z,14.43
2018-08-13T04:24:52.918Z,14.53
2018-08-13T04:25:52.914Z,14.46
2018-08-13T04:26:52.906Z,14.49
2018-08-13T04:27:52.907Z,14.54
2018-08-13T04:28:52.910Z,14.47
2018-08-13T04:29:52.910Z,14.54
2018-08-13T04:30:52.908Z,14.60
2018-08-13T04:31:52.910Z,14.57
2018-08-13T04:32:52.912Z,14.56
2018-08-13T04:33:52.912Z,14.61
2018-08-13T04:34:52.913Z,14.69
2018-08-13T04:35:52.913Z,14.71
2018-08-13T04:36:52.921Z,14.64
2018-08-13T04:37:52.916Z,14.68
2018-08-13T04:38:52.914Z,14.61
2018-08-13T04:39:52.914Z,14.64
2018-08-13T04:40:52.916Z,14.81
2018-08-13T04:41:52.918Z,14.81
2018-08-13T04:42:52.916Z,14.83
2018-08-13T04:43:52.916Z,14.87
2018-08-13T04:44:52.919Z,14.88
2018-08-13T04:45:52.920Z,14.98
2018-08-13T04:46:52.919Z,14.95
2018-08-13T04:47:52.922Z,15.03
2018-08-13T04:48:52.922Z,15.05
2018-08-13T04:49:52.924Z,15.12
2018-08-13T04:50:52.923Z,15.02
2018-08-13T04:51:52.922Z,15.24
2018-08-13T04:52:52.925Z,15.48
2018-08-13T04:53:52.926Z,15.64
2018-08-13T04:54:52.926Z,15.97
2018-08-13T04:55:52.928Z,16.41
2018-08-13T04:56:52.932Z,16.53
2018-08-13T04:57:52.930Z,16.81
2018-08-13T04:58:52.977Z,16.85
2018-08-13T04:59:52.929Z,16.98
2018-08-13T05:00:52.938Z,16.92
2018-08-13T05:01:52.956Z,16.81
2018-08-13T05:02:52.972Z,16.75
2018-08-13T05:03:52.938Z,16.77
2018-08-13T05:04:52.986Z,16.67
2018-08-13T05:05:52.939Z,16.67
2018-08-13T05:06:52.956Z,16.70
2018-08-13T05:07:52.956Z,16.62
2018-08-13T05:08:52.946Z,16.70
2018-08-13T05:09:52.945Z,16.68
2018-08-13T05:10:52.947Z,16.74
2018-08-13T05:11:52.948Z,16.78
2018-08-13T05:12:52.950Z,16.86
2018-08-13T05:13:52.951Z,16.78
2018-08-13T05:14:52.952Z,16.80
2018-08-13T05:15:52.954Z,16.88
2018-08-13T05:16:52.959Z,16.93
2018-08-13T05:17:52.957Z,16.98
2018-08-13T05:18:52.962Z,16.92
2018-08-13T05:19:52.961Z,16.99
2018-08-13T05:20:52.966Z,17.06
2018-08-13T05:21:52.971Z,17.15
2018-08-13T05:22:52.964Z,17.10
2018-08-13T05:23:52.968Z,17.18
2018-08-13T05:24:52.968Z,17.20
2018-08-13T05:25:52.973Z,17.25
2018-08-13T05:26:52.975Z,17.26
2018-08-13T05:27:52.981Z,17.36
2018-08-13T05:28:52.979Z,17.40
2018-08-13T05:29:52.996Z,17.40
2018-08-13T05:30:52.986Z,17.40
2018-08-13T05:31:52.985Z,17.46
2018-08-13T05:32:52.987Z,17.47
2018-08-13T05:33:52.988Z,17.47
2018-08-13T05:34:52.990Z,17.57
2018-08-13T05:35:52.996Z,17.59
2018-08-13T05:36:52.995Z,17.64
2018-08-13T05:37:52.998Z,17.57
2018-08-13T05:38:53.001Z,17.59
2018-08-13T05:39:53.003Z,17.62
2018-08-13T05:40:53.005Z,17.66
2018-08-13T05:41:53.007Z,17.74
2018-08-13T05:42:53.007Z,17.74
2018-08-13T05:43:53.011Z,17.87
2018-08-13T05:44:53.014Z,17.89
2018-08-13T05:45:53.016Z,17.87
2018-08-13T05:46:53.016Z,17.88
2018-08-13T05:47:53.028Z,17.91
2018-08-13T05:48:53.022Z,17.88
2018-08-13T05:49:53.030Z,17.92
2018-08-13T05:50:53.029Z,17.97
2018-08-13T05:51:53.034Z,18.09
2018-08-13T05:52:53.084Z,18.10
2018-08-13T05:53:53.036Z,18.21
2018-08-13T05:54:53.037Z,18.29
2018-08-13T05:55:53.041Z,18.39
2018-08-13T05:56:53.046Z,18.67
2018-08-13T05:57:53.048Z,18.99
2018-08-13T05:58:53.048Z,19.40
2018-08-13T05:59:53.053Z,19.80
2018-08-13T06:00:53.056Z,20.31
2018-08-13T06:01:53.062Z,20.83
2018-08-13T06:02:53.061Z,21.39
2018-08-13T06:03:53.063Z,22.35
2018-08-13T06:04:53.071Z,23.12
2018-08-13T06:05:53.074Z,23.70
2018-08-13T06:06:53.069Z,24.24
2018-08-13T06:07:53.084Z,24.73
2018-08-13T06:08:53.076Z,24.87
2018-08-13T06:09:53.085Z,25.30
2018-08-13T06:10:53.090Z,25.68
2018-08-13T06:11:53.098Z,25.87
2018-08-13T06:12:53.096Z,26.11
2018-08-13T06:13:53.098Z,26.42
2018-08-13T06:14:53.106Z,26.25
2018-08-13T06:15:53.114Z,26.62
2018-08-13T06:16:53.124Z,27.16
2018-08-13T06:17:53.120Z,27.54
2018-08-13T06:18:53.121Z,27.77
2018-08-13T06:19:53.127Z,28.07
2018-08-13T06:20:53.134Z,28.40
2018-08-13T06:21:53.138Z,28.43
2018-08-13T06:22:53.140Z,28.50
2018-08-13T06:23:53.147Z,28.72
2018-08-13T06:24:53.152Z,28.91
2018-08-13T06:25:53.157Z,28.97
2018-08-13T06:26:53.161Z,29.01
2018-08-13T06:27:53.172Z,29.20
2018-08-13T06:28:53.174Z,29.41
2018-08-13T06:29:53.176Z,29.66
2018-08-13T06:30:53.191Z,29.84
2018-08-13T06:31:53.189Z,29.86
2018-08-13T06:32:53.197Z,29.86
2018-08-13T06:33:53.238Z,29.82
2018-08-13T06:34:53.219Z,29.72
2018-08-13T06:35:53.216Z,30.05
2018-08-13T06:36:53.227Z,29.86
2018-08-13T06:37:53.230Z,30.18
2018-08-13T06:38:53.235Z,30.21
2018-08-13T06:39:53.576Z,30.40
2018-08-13T06:40:53.543Z,30.29
2018-08-13T06:41:53.569Z,30.65
2018-08-13T06:42:53.551Z,30.75
2018-08-13T06:43:53.605Z,30.56
2018-08-13T06:44:53.610Z,30.75
2018-08-13T06:45:53.579Z,30.86
2018-08-13T06:46:53.622Z,31.28
2018-08-13T06:47:53.629Z,31.30
2018-08-13T06:48:53.593Z,31.30
2018-08-13T06:49:53.653Z,31.15
2018-08-13T06:50:53.662Z,31.27
2018-08-13T06:51:53.660Z,31.31
2018-08-13T06:52:53.528Z,31.43
2018-08-13T06:53:53.590Z,31.93
2018-08-13T06:54:53.580Z,32.00
2018-08-13T06:55:53.543Z,32.03
2018-08-13T06:56:53.590Z,31.93
2018-08-13T06:57:53.552Z,31.36
2018-08-13T06:58:53.564Z,31.13
2018-08-13T06:59:53.613Z,31.23
2018-08-13T07:00:53.640Z,31.36
2018-08-13T07:01:53.630Z,31.77
2018-08-13T07:02:53.622Z,31.96
2018-08-13T07:03:53.606Z,31.73
2018-08-13T07:04:53.539Z,31.91
2018-08-13T07:05:53.553Z,31.70
2018-08-13T07:06:53.559Z,31.96
2018-08-13T07:07:53.505Z,32.22
2018-08-13T07:08:53.559Z,32.57
2018-08-13T07:09:53.580Z,32.51
2018-08-13T07:10:53.615Z,32.44
2018-08-13T07:11:53.637Z,32.40
2018-08-13T07:12:53.617Z,32.55
2018-08-13T07:13:53.656Z,32.64
2018-08-13T07:14:53.700Z,32.48
2018-08-13T07:15:53.740Z,32.37
2018-08-13T07:16:53.593Z,32.00
2018-08-13T07:17:53.666Z,32.33
2018-08-13T07:18:53.594Z,32.29
2018-08-13T07:19:53.622Z,32.47
2018-08-13T07:20:53.650Z,32.59
2018-08-13T07:21:53.606Z,32.91
2018-08-13T07:22:53.616Z,32.85
2018-08-13T07:23:53.626Z,33.13
2018-08-13T07:24:53.638Z,33.03
2018-08-13T07:25:53.689Z,33.23
2018-08-13T07:26:53.652Z,33.51
2018-08-13T07:27:53.739Z,33.19
2018-08-13T07:28:53.675Z,32.92
2018-08-13T07:29:53.688Z,32.59
2018-08-13T07:30:53.695Z,31.85
2018-08-13T07:31:53.705Z,32.10
2018-08-13T07:32:53.715Z,32.30
2018-08-13T07:33:53.725Z,32.54
2018-08-13T07:34:53.737Z,32.57
2018-08-13T07:35:53.748Z,32.77
2018-08-13T07:36:53.759Z,32.99
2018-08-13T07:37:53.772Z,32.92
2018-08-13T07:38:53.813Z,32.92
2018-08-13T07:39:53.791Z,32.92
2018-08-13T07:40:53.800Z,33.20
2018-08-13T07:41:53.832Z,33.01
2018-08-13T07:42:53.821Z,32.55
2018-08-13T07:43:53.834Z,31.92
2018-08-13T07:44:53.846Z,31.95
2018-08-13T07:45:53.857Z,31.73
2018-08-13T07:46:53.868Z,31.46
2018-08-13T07:47:53.880Z,31.43
2018-08-13T07:48:53.896Z,31.18
2018-08-13T07:49:53.903Z,30.64
2018-08-13T07:50:53.913Z,30.46
2018-08-13T07:51:53.929Z,30.56
2018-08-13T07:52:53.935Z,30.30
2018-08-13T07:53:53.946Z,30.16
2018-08-13T07:54:53.960Z,30.23
2018-08-13T07:55:53.966Z,30.62
2018-08-13T07:56:53.977Z,30.16
2018-08-13T07:57:53.993Z,30.37
2018-08-13T07:58:54.006Z,30.53
2018-08-13T07:59:54.026Z,30.56
2018-08-13T08:00:54.020Z,30.75
2018-08-13T08:01:54.030Z,30.50
2018-08-13T08:02:54.041Z,30.91
2018-08-13T08:03:54.052Z,30.99
2018-08-13T08:04:54.061Z,31.65
2018-08-13T08:05:54.071Z,31.82
2018-08-13T08:06:54.080Z,32.27
2018-08-13T08:07:54.092Z,32.51
2018-08-13T08:08:54.104Z,32.54
2018-08-13T08:09:54.114Z,32.51
2018-08-13T08:10:54.124Z,32.58
2018-08-13T08:11:54.139Z,32.84
2018-08-13T08:12:54.147Z,32.85
2018-08-13T08:13:54.159Z,33.23
2018-08-13T08:14:54.170Z,33.14
2018-08-13T08:15:54.182Z,32.58
2018-08-13T08:16:54.196Z,32.86
2018-08-13T08:17:54.205Z,32.92
2018-08-13T08:18:54.216Z,33.14
2018-08-13T08:19:54.229Z,32.81
2018-08-13T08:20:54.245Z,32.91
2018-08-13T08:21:54.255Z,32.06
2018-08-13T08:22:54.266Z,31.85
2018-08-13T08:23:54.280Z,31.24
2018-08-13T08:24:54.292Z,30.94
2018-08-13T08:25:54.305Z,30.53
2018-08-13T08:26:54.315Z,30.30
2018-08-13T08:27:54.328Z,29.79
2018-08-13T08:28:54.340Z,29.43
2018-08-13T08:29:54.351Z,29.23
2018-08-13T08:30:54.360Z,28.93
2018-08-13T08:31:54.384Z,28.84
2018-08-13T08:32:54.386Z,28.84
2018-08-13T08:33:54.400Z,29.22
2018-08-13T08:34:54.405Z,29.16
2018-08-13T08:35:54.416Z,29.31
2018-08-13T08:36:54.425Z,29.28
2018-08-13T08:37:54.434Z,29.29
2018-08-13T08:38:54.445Z,29.31
2018-08-13T08:39:54.458Z,29.22
2018-08-13T08:40:54.507Z,29.22
2018-08-13T08:41:54.482Z,29.26
2018-08-13T08:42:54.493Z,28.93
2018-08-13T08:43:54.496Z,28.66
2018-08-13T08:44:54.506Z,28.47
2018-08-13T08:45:54.543Z,28.14
2018-08-13T08:46:54.531Z,27.85
2018-08-13T08:47:54.534Z,27.67
2018-08-13T08:48:54.548Z,27.50
2018-08-13T08:49:54.549Z,27.35
2018-08-13T08:50:54.557Z,27.20
2018-08-13T08:51:54.583Z,27.04
2018-08-13T08:52:54.574Z,26.74
2018-08-13T08:53:54.583Z,26.50
2018-08-13T08:54:54.590Z,26.31
2018-08-13T08:55:54.600Z,26.28
2018-08-13T08:56:54.607Z,26.21
2018-08-13T08:57:54.613Z,25.94
2018-08-13T08:58:54.621Z,25.52
2018-08-13T08:59:54.628Z,25.38
2018-08-13T09:00:54.636Z,25.37
2018-08-13T09:01:54.643Z,25.39
2018-08-13T09:02:54.651Z,25.34
2018-08-13T09:03:54.658Z,25.62
2018-08-13T09:04:54.664Z,25.42
2018-08-13T09:05:54.724Z,25.35
2018-08-13T09:06:54.677Z,25.19
2018-08-13T09:07:54.681Z,25.06
2018-08-13T09:08:54.700Z,25.02
2018-08-13T09:09:54.705Z,24.94
2018-08-13T09:10:54.703Z,24.60
2018-08-13T09:11:54.716Z,24.41
2018-08-13T09:12:54.716Z,24.23
2018-08-13T09:13:54.723Z,24.22
2018-08-13T09:14:54.729Z,24.39
2018-08-13T09:15:54.735Z,24.45
2018-08-13T09:16:54.742Z,24.37
2018-08-13T09:17:54.748Z,24.27
2018-08-13T09:18:54.779Z,24.37
2018-08-13T09:19:54.761Z,24.41
2018-08-13T09:20:54.772Z,24.52
2018-08-13T09:21:54.776Z,24.59
2018-08-13T09:22:54.785Z,24.59
2018-08-13T09:23:54.783Z,24.67
2018-08-13T09:24:54.790Z,24.69
2018-08-13T09:25:54.797Z,24.54
2018-08-13T09:26:54.815Z,24.59
2018-08-13T09:27:54.809Z,24.56
2018-08-13T09:28:54.814Z,24.57
2018-08-13T09:29:54.821Z,24.63
2018-08-13T09:30:54.827Z,24.71
2018-08-13T09:31:54.833Z,24.68
2018-08-13T09:32:54.853Z,24.71
2018-08-13T09:33:54.845Z,24.75
2018-08-13T09:34:54.851Z,24.85
2018-08-13T09:35:54.856Z,24.91
2018-08-13T09:36:54.863Z,24.98
2018-08-13T09:37:54.873Z,25.02
2018-08-13T09:38:54.873Z,25.05
2018-08-13T09:39:54.939Z,25.01
2018-08-13T09:40:54.889Z,25.02
2018-08-13T09:41:54.897Z,25.00
2018-08-13T09:42:54.906Z,24.92
2018-08-13T09:43:54.903Z,24.82
2018-08-13T09:44:54.911Z,24.90
2018-08-13T09:45:54.914Z,24.92
2018-08-13T09:46:54.919Z,24.90
2018-08-13T09:47:54.930Z,24.92
2018-08-13T09:48:54.933Z,24.87
2018-08-13T09:49:54.939Z,24.98
2018-08-13T09:50:54.943Z,24.98
2018-08-13T09:51:54.954Z,25.05
2018-08-13T09:52:54.964Z,24.95
2018-08-13T09:53:55.068Z,24.97
2018-08-13T09:54:54.969Z,25.01
2018-08-13T09:55:54.971Z,25.02
2018-08-13T09:56:54.978Z,25.16
2018-08-13T09:57:54.986Z,25.19
2018-08-13T09:58:54.990Z,25.17
2018-08-13T09:59:54.996Z,25.24
2018-08-13T10:00:55.003Z,25.31
2018-08-13T10:01:55.021Z,25.37
2018-08-13T10:02:55.014Z,25.42
2018-08-13T10:03:55.022Z,25.32
2018-08-13T10:04:55.023Z,25.44
2018-08-13T10:05:55.045Z,25.30
2018-08-13T10:06:55.036Z,25.30
2018-08-13T10:07:55.050Z,25.24
2018-08-13T10:08:55.048Z,25.13
2018-08-13T10:09:55.072Z,25.06
2018-08-13T10:10:55.100Z,25.02
2018-08-13T10:11:55.065Z,25.01
2018-08-13T10:12:55.081Z,25.02
2018-08-13T10:13:55.090Z,25.00
2018-08-13T10:14:55.086Z,24.90
2018-08-13T10:15:55.089Z,24.94
2018-08-13T10:16:55.185Z,24.83
2018-08-13T10:17:55.152Z,24.69
2018-08-13T10:18:55.109Z,24.61
2018-08-13T10:19:55.112Z,24.67
2018-08-13T10:20:55.119Z,24.54
2018-08-13T10:21:55.124Z,24.53
2018-08-13T10:22:55.132Z,24.56
2018-08-13T10:23:55.134Z,24.52
2018-08-13T10:24:55.141Z,24.56
2018-08-13T10:25:55.149Z,24.73
2018-08-13T10:26:55.149Z,24.67
2018-08-13T10:27:55.157Z,24.85
2018-08-13T10:28:55.167Z,24.80
2018-08-13T10:29:55.173Z,24.83
2018-08-13T10:30:55.174Z,24.90
2018-08-13T10:31:55.180Z,24.92
2018-08-13T10:32:55.186Z,24.95
2018-08-13T10:33:55.193Z,25.01
2018-08-13T10:34:55.197Z,25.05
2018-08-13T10:35:55.204Z,24.98
2018-08-13T10:36:55.209Z,24.98
2018-08-13T10:37:55.216Z,24.91
2018-08-13T10:38:55.219Z,25.09
2018-08-13T10:39:55.225Z,24.95
2018-08-13T10:40:55.230Z,24.91
2018-08-13T10:41:55.237Z,25.00
2018-08-13T10:42:55.242Z,24.94
2018-08-13T10:43:55.250Z,24.82
2018-08-13T10:44:55.324Z,24.88
2018-08-13T10:45:55.260Z,24.88
2018-08-13T10:46:55.269Z,24.88
2018-08-13T10:47:55.290Z,24.91
2018-08-13T10:48:55.282Z,24.94
2018-08-13T10:49:55.284Z,24.95
2018-08-13T10:50:55.288Z,25.05
2018-08-13T10:51:55.294Z,25.00
2018-08-13T10:52:55.300Z,25.05
2018-08-13T10:53:55.304Z,25.10
2018-08-13T10:54:55.309Z,24.94
2018-08-13T10:55:55.316Z,25.01
2018-08-13T10:56:55.319Z,24.95
2018-08-13T10:57:55.329Z,24.98
2018-08-13T10:58:55.335Z,24.94
2018-08-13T10:59:55.339Z,24.95
2018-08-13T11:00:55.344Z,24.97
2018-08-13T11:01:55.351Z,24.92
2018-08-13T11:02:55.435Z,24.94
2018-08-13T11:03:55.365Z,24.92
2018-08-13T11:04:55.368Z,24.91
2018-08-13T11:05:55.378Z,24.91
2018-08-13T11:06:55.384Z,24.71
2018-08-13T11:07:55.404Z,24.80
2018-08-13T11:08:55.389Z,24.73
2018-08-13T11:09:55.395Z,24.75
2018-08-13T11:10:55.401Z,24.64
2018-08-13T11:11:55.406Z,24.54
2018-08-13T11:12:55.422Z,24.52
2018-08-13T11:13:55.423Z,24.57
2018-08-13T11:14:55.424Z,24.41
2018-08-13T11:15:55.429Z,24.37
2018-08-13T11:16:55.435Z,24.23
2018-08-13T11:17:55.440Z,24.26
2018-08-13T11:18:55.448Z,24.16
2018-08-13T11:19:55.448Z,24.08
2018-08-13T11:20:55.456Z,24.05
2018-08-13T11:21:55.462Z,24.08
2018-08-13T11:22:55.466Z,24.05
2018-08-13T11:23:55.476Z,24.04
2018-08-13T11:24:55.476Z,24.05
2018-08-13T11:25:55.483Z,23.97
2018-08-13T11:26:55.487Z,23.90
2018-08-13T11:27:55.507Z,23.83
2018-08-13T11:28:55.505Z,23.79
2018-08-13T11:29:55.503Z,23.72
2018-08-13T11:30:57.101Z,23.58
2018-08-13T11:31:55.515Z,23.32
2018-08-13T11:32:55.520Z,23.27
2018-08-13T11:33:55.524Z,23.01
2018-08-13T11:34:55.589Z,22.87
2018-08-13T11:35:55.552Z,22.71
2018-08-13T11:36:55.541Z,22.53
2018-08-13T11:37:55.552Z,22.35
2018-08-13T11:38:55.552Z,22.14
2018-08-13T11:39:55.556Z,22.02
2018-08-13T11:40:55.562Z,21.97
2018-08-13T11:41:55.568Z,21.92
2018-08-13T11:42:55.571Z,21.66
2018-08-13T11:43:55.593Z,21.63
2018-08-13T11:44:55.583Z,21.57
2018-08-13T11:45:55.588Z,21.46
2018-08-13T11:46:55.594Z,21.46
2018-08-13T11:47:55.595Z,21.19
2018-08-13T11:48:55.604Z,21.24
2018-08-13T11:49:55.610Z,21.20
2018-08-13T11:50:55.610Z,21.09
2018-08-13T11:51:55.618Z,21.06
2018-08-13T11:52:55.621Z,21.02
2018-08-13T11:53:55.627Z,20.98
2018-08-13T11:54:55.633Z,20.96
2018-08-13T11:55:55.635Z,20.93
2018-08-13T11:56:55.647Z,20.93
2018-08-13T11:57:55.646Z,20.93
2018-08-13T11:58:55.649Z,20.95
2018-08-13T11:59:55.654Z,20.95
2018-08-13T12:00:55.671Z,20.95
2018-08-13T12:01:55.678Z,20.91
2018-08-13T12:02:55.669Z,20.83
2018-08-13T12:03:55.678Z,20.83
2018-08-13T12:04:55.681Z,20.83
2018-08-13T12:05:55.684Z,20.89
2018-08-13T12:06:55.690Z,20.91
2018-08-13T12:07:55.692Z,20.91
2018-08-13T12:08:55.695Z,20.91
2018-08-13T12:09:55.702Z,20.96
2018-08-13T12:10:55.707Z,20.87
2018-08-13T12:11:55.711Z,20.93
2018-08-13T12:12:55.713Z,20.99
2018-08-13T12:13:55.744Z,20.99
2018-08-13T12:14:55.723Z,21.05
2018-08-13T12:15:55.730Z,21.16
2018-08-13T12:16:55.738Z,21.14
2018-08-13T12:17:55.739Z,21.16
2018-08-13T12:18:55.743Z,21.36
2018-08-13T12:19:55.749Z,21.39
2018-08-13T12:20:55.751Z,21.34
2018-08-13T12:21:55.757Z,21.38
2018-08-13T12:22:55.762Z,21.48
2018-08-13T12:23:55.765Z,21.45
2018-08-13T12:24:55.773Z,21.42
2018-08-13T12:25:55.776Z,21.48
2018-08-13T12:26:55.782Z,21.44
2018-08-13T12:27:55.785Z,21.57
2018-08-13T12:28:55.791Z,21.57
2018-08-13T12:29:55.798Z,21.63
2018-08-13T12:30:55.799Z,21.56
2018-08-13T12:31:55.819Z,21.41
2018-08-13T12:32:55.809Z,21.45
2018-08-13T12:33:55.819Z,21.46
2018-08-13T12:34:55.817Z,21.42
2018-08-13T12:35:55.824Z,21.41
2018-08-13T12:36:55.828Z,21.51
2018-08-13T12:37:55.839Z,21.51
2018-08-13T12:38:55.836Z,21.53
2018-08-13T12:39:55.844Z,21.51
2018-08-13T12:40:55.861Z,21.50
2018-08-13T12:41:55.856Z,21.41
2018-08-13T12:42:55.854Z,21.42
2018-08-13T12:43:55.861Z,21.44
2018-08-13T12:44:55.870Z,21.42
2018-08-13T12:45:55.873Z,21.42
2018-08-13T12:46:55.874Z,21.44
2018-08-13T12:47:55.879Z,21.51
2018-08-13T12:48:55.884Z,21.48
2018-08-13T12:49:55.888Z,21.44
2018-08-13T12:50:55.908Z,21.45
2018-08-13T12:51:55.897Z,21.51
2018-08-13T12:52:55.903Z,21.53